This is the latest recevied weather packets stored in our database for station/object OK1FET-14. If no packets are shown the sender has not sent any weather packets the latest 10 day(s).
| Time | Temp. | Humidity | Pressure | Rain* | Wind** | Luminosity | Snow |
|---|---|---|---|---|---|---|---|
| 1788016360 | 22.78° C | 45% | 1017.4 hPa | - | - | - | - |
| 1788016079 | 23.33° C | 45% | 1017.4 hPa | - | - | - | - |
| 1788015798 | 21.67° C | 47% | 1017.3 hPa | - | - | - | - |
| 1788015798 | 21.67° C | 47% | 1017.3 hPa | - | - | - | - |
| 1788015516 | 23.89° C | 41% | 1017.4 hPa | - | - | - | - |
| 1788015516 | 23.89° C | 41% | 1017.4 hPa | - | - | - | - |
| 1788015235 | 25° C | 42% | 1017.4 hPa | - | - | - | - |
| 1788015235 | 25° C | 42% | 1017.4 hPa | - | - | - | - |
| 1788014954 | 25° C | 41% | 1017.5 hPa | - | - | - | - |
| 1788014954 | 25° C | 41% | 1017.5 hPa | - | - | - | - |
| 1788014673 | 23.89° C | 43% | 1017.5 hPa | - | - | - | - |
| 1788014673 | 23.89° C | 43% | 1017.5 hPa | - | - | - | - |
| 1788014110 | 23.33° C | 43% | 1017.5 hPa | - | - | - | - |
| 1788013829 | 25° C | 41% | 1017.5 hPa | - | - | - | - |
| 1788013829 | 25° C | 41% | 1017.5 hPa | - | - | - | - |
| 1788013548 | 25° C | 42% | 1017.5 hPa | - | - | - | - |
| 1788013548 | 25° C | 42% | 1017.5 hPa | - | - | - | - |
| 1788013266 | 23.89° C | 46% | 1017.6 hPa | - | - | - | - |
| 1788013266 | 23.89° C | 46% | 1017.6 hPa | - | - | - | - |
| 1788012985 | 23.89° C | 45% | 1017.6 hPa | - | - | - | - |
| 1788012985 | 23.89° C | 45% | 1017.6 hPa | - | - | - | - |
| 1788012704 | 21.67° C | 48% | 1017.6 hPa | - | - | - | - |
| 1788012704 | 21.67° C | 48% | 1017.6 hPa | - | - | - | - |
| 1788012704 | 21.67° C | 48% | 1017.6 hPa | - | - | - | - |
| 1788012423 | 23.33° C | 45% | 1017.6 hPa | - | - | - | - |
* Rain since midnight (hover to see other rain measurements)
** Current wind speed in m/s (hover to see current wind gust speed)